Time;durP1;ratioP1;P1;durP2;ratioP2;P2;SDS_P1;SDS_P2;PMS_P1;PMS_P2;Temp;Humidity;BMP_temperature;BMP_pressure;BME280_temperature;BME280_humidity;BME280_pressure;Samples;Min_cycle;Max_cycle;Signal;HPM_P1;HPM_P2
2022/02/02 00:05:38;;;;;;;3.50;2.80;;;;;;;-0.35;89.76;97208.43;432124;1271;142155;-65
2022/02/02 00:15:52;;;;;;;3.60;3.30;;;;;;;-0.27;89.69;97207.86;435439;1271;141485;-63
2022/02/02 00:26:03;;;;;;;3.60;3.20;;;;;;;-0.26;89.77;97203.29;435546;1271;144257;-63
2022/02/02 00:36:13;;;;;;;4.60;4.20;;;;;;;-0.24;90.15;97204.77;433992;1271;142025;-65
2022/02/02 00:46:23;;;;;;;5.20;4.80;;;;;;;-0.14;90.35;97203.66;440749;1273;145296;-64
2022/02/02 00:56:29;;;;;;;9.50;6.30;;;;;;;0.04;90.83;97208.94;439817;1271;142455;-63
2022/02/02 01:06:39;;;;;;;7.60;6.10;;;;;;;0.24;90.79;97222.39;431665;1271;141733;-63
2022/02/02 01:37:40;;;;;;;7.80;6.50;;;;;;;0.59;91.07;97228.77;431668;1271;141688;-61
2022/02/02 01:47:55;;;;;;;5.70;4.90;;;;;;;0.63;91.07;97228.84;436658;1272;142687;-62
2022/02/02 01:58:05;;;;;;;6.20;5.30;;;;;;;0.71;91.32;97231.66;440686;1272;146952;-62
2022/02/02 02:08:11;;;;;;;9.10;5.90;;;;;;;0.79;91.21;97228.02;432934;1273;141689;-61
2022/02/02 02:18:18;;;;;;;8.70;5.50;;;;;;;0.87;91.15;97228.08;430202;1271;141987;-61
2022/02/02 02:28:34;;;;;;;12.30;6.20;;;;;;;0.90;91.33;97226.14;443164;1272;142014;-66
2022/02/02 02:59:34;;;;;;;11.60;4.90;;;;;;;1.11;91.39;97223.48;429565;1271;142452;-62
2022/02/02 03:30:37;;;;;;;6.60;3.60;;;;;;;1.21;90.86;97242.84;430964;1272;141242;-62
2022/02/02 03:51:24;;;;;;;8.30;5.40;;;;;;;1.16;91.02;97252.08;430272;1273;145348;-61
2022/02/02 04:01:49;;;;;;;12.70;3.80;;;;;;;1.21;91.02;97256.13;442046;1273;141806;-62
2022/02/02 04:12:04;;;;;;;5.70;4.60;;;;;;;1.24;90.99;97266.74;430667;1273;141939;-61
2022/02/02 05:04:18;;;;;;;8.30;3.30;;;;;;;1.25;91.03;97285.67;443323;1271;143227;-62
2022/02/02 05:56:06;;;;;;;8.10;4.10;;;;;;;1.39;90.66;97308.27;428026;1277;141146;-62
2022/02/02 06:06:13;;;;;;;6.30;3.50;;;;;;;1.40;91.08;97312.32;443615;1275;140583;-62
2022/02/02 06:16:19;;;;;;;5.10;3.60;;;;;;;1.39;90.90;97327.05;433881;1275;140005;-61
2022/02/02 06:26:27;;;;;;;7.10;4.30;;;;;;;1.40;91.05;97337.48;434156;1276;140970;-61
2022/02/02 06:36:35;;;;;;;7.70;3.10;;;;;;;1.42;91.07;97355.47;445657;1276;141561;-62
2022/02/02 06:46:43;;;;;;;11.40;4.20;;;;;;;1.45;90.99;97370.45;445626;1275;141680;-63
2022/02/02 06:56:57;;;;;;;13.20;6.30;;;;;;;1.50;91.03;97388.77;441479;1274;141145;-62
2022/02/02 07:07:15;;;;;;;7.00;3.90;;;;;;;1.59;91.04;97385.10;437204;1275;141945;-62
2022/02/02 07:17:37;;;;;;;12.50;5.00;;;;;;;1.64;91.57;97387.90;445110;1274;142312;-62
2022/02/02 07:27:59;;;;;;;9.80;5.00;;;;;;;1.69;91.61;97393.98;445875;1274;141072;-62
2022/02/02 07:38:12;;;;;;;13.90;6.30;;;;;;;1.76;91.42;97416.31;445314;1273;142972;-63
2022/02/02 07:48:18;;;;;;;7.00;3.70;;;;;;;1.87;91.08;97430.13;439943;1274;142296;-61
2022/02/02 07:58:24;;;;;;;5.60;3.10;;;;;;;1.94;90.91;97435.70;433470;1274;141375;-61
2022/02/02 08:08:34;;;;;;;5.90;3.30;;;;;;;2.14;90.54;97444.97;440495;1274;141668;-60
2022/02/02 08:18:43;;;;;;;12.40;4.00;;;;;;;2.09;90.07;97470.36;440051;1275;142433;-61
2022/02/02 08:28:50;;;;;;;9.50;4.20;;;;;;;1.94;89.56;97488.85;445041;1274;141921;-62
2022/02/02 08:39:08;;;;;;;7.10;2.50;;;;;;;1.79;89.48;97502.19;438080;1274;141259;-77
2022/02/02 08:49:16;;;;;;;8.30;4.00;;;;;;;1.63;89.33;97510.10;428514;1275;141209;-65
2022/02/02 08:59:25;;;;;;;11.40;5.40;;;;;;;1.79;89.92;97502.58;431004;1275;141415;-62
2022/02/02 09:09:53;;;;;;;12.00;4.80;;;;;;;2.07;89.86;97519.17;435474;1275;141699;-65
2022/02/02 09:20:17;;;;;;;12.70;5.20;;;;;;;2.22;89.77;97531.98;427679;1274;140913;-67
2022/02/02 09:51:23;;;;;;;9.30;3.10;;;;;;;2.04;89.41;97596.14;441210;1275;142963;-63
2022/02/02 10:01:45;;;;;;;1.70;1.60;;;;;;;2.26;88.79;97614.65;428768;1274;141078;-67
2022/02/02 10:22:28;;;;;;;2.30;1.80;;;;;;;2.40;86.55;97629.13;441786;1273;141902;-65
2022/02/02 10:32:42;;;;;;;3.40;2.50;;;;;;;2.08;86.47;97650.29;435629;1275;140840;-66
2022/02/02 10:42:49;;;;;;;2.00;1.80;;;;;;;1.97;86.37;97666.59;438352;1274;142804;-66
2022/02/02 11:14:04;;;;;;;2.80;2.10;;;;;;;2.45;84.83;97699.86;441036;1274;141707;-65
2022/02/02 11:24:17;;;;;;;2.60;2.10;;;;;;;2.37;84.16;97724.65;435774;1274;141671;-67
2022/02/02 11:34:24;;;;;;;2.50;1.70;;;;;;;2.36;83.90;97744.91;434517;1276;142665;-65
2022/02/02 11:44:47;;;;;;;3.10;1.90;;;;;;;2.28;83.52;97759.05;436631;1275;141381;-63
2022/02/02 11:55:46;;;;;;;2.90;2.30;;;;;;;2.47;82.85;97787.46;434163;1275;141123;-61
2022/02/02 12:06:09;;;;;;;3.00;2.00;;;;;;;2.82;82.30;97810.09;432000;1273;141301;-67
2022/02/02 12:47:58;;;;;;;3.50;2.50;;;;;;;2.24;82.42;97888.79;429554;1274;141642;-61
2022/02/02 12:58:11;;;;;;;3.30;2.80;;;;;;;2.26;82.47;97919.36;442074;1275;141378;-71
2022/02/02 13:08:22;;;;;;;4.10;3.60;;;;;;;2.30;82.47;97947.14;442573;1274;140469;-62
2022/02/02 13:18:36;;;;;;;5.30;3.90;;;;;;;2.09;82.47;97975.91;444903;1274;141343;-62
2022/02/02 13:28:48;;;;;;;4.80;3.60;;;;;;;1.96;82.61;98005.25;445193;1274;140947;-60
2022/02/02 13:49:49;;;;;;;5.50;4.10;;;;;;;1.65;82.50;98069.35;437440;1275;140420;-72
2022/02/02 14:10:39;;;;;;;5.60;3.50;;;;;;;1.50;82.05;98112.70;432335;1275;143807;-73
2022/02/02 14:31:12;;;;;;;6.70;5.40;;;;;;;1.34;82.34;98155.73;435992;1274;195168;-60
2022/02/02 14:41:36;;;;;;;6.00;4.00;;;;;;;1.29;82.28;98183.59;428932;1275;141516;-59
2022/02/02 14:51:53;;;;;;;6.00;4.50;;;;;;;1.14;82.18;98210.31;429224;1274;141861;-59
2022/02/02 15:33:16;;;;;;;5.70;4.30;;;;;;;0.84;82.66;98316.80;445522;1272;140995;-69
2022/02/02 15:43:33;;;;;;;6.50;4.50;;;;;;;0.79;82.95;98337.36;444968;1273;140954;-69
2022/02/02 16:04:08;;;;;;;5.20;4.20;;;;;;;0.70;82.73;98388.07;445668;1272;142336;-69
2022/02/02 16:14:23;;;;;;;8.90;5.60;;;;;;;0.64;83.15;98420.50;444880;1273;141452;-66
2022/02/02 16:24:59;;;;;;;6.00;4.80;;;;;;;0.52;83.00;98445.63;444828;1273;141738;-65
2022/02/02 16:35:36;;;;;;;6.80;5.00;;;;;;;0.54;83.32;98468.48;431043;1272;140802;-62
2022/02/02 16:45:41;;;;;;;;;;;;;;;0.51;83.03;98491.28;445777;1273;142179;-65
2022/02/02 16:55:54;;;;;;;7.70;6.60;;;;;;;0.49;82.72;98507.91;446000;1273;129012;-63
2022/02/02 17:37:27;;;;;;;9.10;4.80;;;;;;;0.21;82.57;98628.98;445057;1274;206977;-60
2022/02/02 18:18:55;;;;;;;5.10;3.60;;;;;;;-0.05;82.40;98703.03;445624;1273;141520;-63
2022/02/02 18:29:07;;;;;;;4.90;3.10;;;;;;;-0.01;81.93;98719.95;438764;1274;142932;-65
2022/02/02 18:50:02;;;;;;;6.20;4.10;;;;;;;-0.07;81.48;98772.81;436294;1274;141934;-61
2022/02/02 19:00:23;;;;;;;7.10;4.80;;;;;;;-0.13;81.61;98803.98;444544;1273;141517;-62
2022/02/02 19:31:37;;;;;;;6.60;4.40;;;;;;;-0.16;81.57;98863.25;445094;1274;141148;-71
2022/02/02 19:52:36;;;;;;;7.50;4.50;;;;;;;-0.19;81.66;98897.58;433048;1274;140951;-62
2022/02/02 20:03:09;;;;;;;7.70;4.60;;;;;;;-0.30;81.87;98917.34;444093;1274;141768;-64
2022/02/02 20:13:16;;;;;;;5.80;3.70;;;;;;;-0.34;81.87;98942.24;431184;1274;141466;-62
2022/02/02 20:23:22;;;;;;;6.30;4.20;;;;;;;-0.35;82.18;98969.79;429387;1274;140793;-62
2022/02/02 20:33:28;;;;;;;8.30;4.10;;;;;;;-0.33;82.30;98992.60;440513;1274;141391;-62
2022/02/02 20:43:45;;;;;;;8.00;4.80;;;;;;;-0.30;82.20;99010.73;444345;1273;141554;-61
2022/02/02 21:14:40;;;;;;;8.10;5.20;;;;;;;-0.21;82.20;99053.85;433769;1274;141506;-61
2022/02/02 21:24:52;;;;;;;6.10;4.80;;;;;;;-0.23;82.41;99082.45;432095;1271;141571;-63
2022/02/02 21:35:04;;;;;;;7.80;6.10;;;;;;;-0.25;82.43;99106.94;431376;1272;142473;-61
2022/02/02 21:45:11;;;;;;;9.40;5.50;;;;;;;-0.28;82.21;99119.08;443758;1271;141144;-62
2022/02/02 21:55:18;;;;;;;8.80;5.50;;;;;;;-0.29;82.25;99143.87;444211;1272;140731;-62
2022/02/02 22:05:24;;;;;;;8.20;6.20;;;;;;;-0.26;82.48;99172.52;434306;1273;141701;-63
2022/02/02 22:15:38;;;;;;;7.80;4.90;;;;;;;-0.24;82.59;99191.73;429648;1271;142021;-66
2022/02/02 22:25:45;;;;;;;8.60;6.20;;;;;;;-0.32;82.22;99214.12;439373;1272;140899;-63
2022/02/02 22:35:51;;;;;;;8.40;6.30;;;;;;;-0.35;82.44;99233.11;430694;1273;142617;-63
2022/02/02 22:45:57;;;;;;;8.80;6.10;;;;;;;-0.41;82.35;99242.38;429735;1273;142215;-63
2022/02/02 22:56:03;;;;;;;7.30;5.70;;;;;;;-0.41;82.59;99253.73;430280;1273;142093;-66
2022/02/02 23:06:09;;;;;;;5.60;5.10;;;;;;;-0.42;82.14;99258.90;437399;1272;143182;-63
2022/02/02 23:16:22;;;;;;;8.70;5.90;;;;;;;-0.40;82.38;99257.15;443437;1272;141062;-63
2022/02/02 23:26:30;;;;;;;9.20;6.90;;;;;;;-0.34;82.54;99267.51;445012;1272;141074;-62
2022/02/02 23:36:36;;;;;;;11.80;7.40;;;;;;;-0.32;82.48;99280.50;439561;1272;142068;-63
2022/02/02 23:46:48;;;;;;;8.70;7.40;;;;;;;-0.36;82.79;99295.59;445457;1272;142911;-63
2022/02/02 23:57:01;;;;;;;10.30;7.70;;;;;;;-0.47;83.39;99325.75;446117;1272;142224;-62
